Forside
METAR-TAF:

METAR-TAF

Lufthavne :

Springfield-Beckley Municipal Airport

Springfield, Ohio, USA

Breddekreds: 39-50N, længdekreds: 083-50W, højde: 321 m

Aktuelle vejr

Denne rapport blev lavet for 32 minutter siden, kl. 17:56 UTC
Vind 10 kt fra vestsydvest
Temperatur 8°C
Fugtighed 46%
Tryk 1019 hPa
Sigt: 16.1 km
Overskyet i en højde af 8000 ft

METAR: KSGH 231756Z AUTO 24010KT 10SM OVC080 08/M03 A3009 RMK AO2 SLP196 60027 T00781028 10078 20000 58018

Tid: 13:28 (18:28 UTC)


TAF: fraværende

Vejrobservationer og prognoser fra mere end 4000 lufthavne (METAR og TAF).

De gule og røde prikker repræsenterer de meteorologiske stationer.

Flyt musen over at se navnet på stationen.

Så klik over at se vejr observationer og prognoser.

At skifte det kort: Klik på de grønne knapper med et sort kors for at zoome ind; på den grønne knap med en bindestreg for at zoome ud; eller på de grønne pile for tilstødende kort.


METAR-TAF: